NCAR-RAP Real-Time Weather Data

Output produced by METARs form (17 October 2018  16:18 UTC)
found at http://weather.rap.ucar.edu/surface/
 
RJOB 171200Z 08004KT 050V110 9999 FEW015 SCT070 BKN/// 13/11 Q1014
RJOB 171100Z 03004KT 350V060 9999 FEW015 SCT050 BKN/// 15/11 Q1013
RJOB 171000Z 04004KT 010V080 9999 FEW015 SCT080 BKN/// 15/11 Q1013
RJOB 170900Z 03010KT 9999 FEW015 SCT030 BKN/// 16/11 Q1012
RJOB 170800Z 03008KT 9999 FEW025 SCT040 BKN/// 17/11 Q1013
RJOB 170700Z 03004KT 9999 FEW025 SCT040 BKN/// 19/10 Q1012
RJOB 170600Z 36003KT 330V050 9999 FEW025 SCT045 BKN/// 20/12 Q1011
RJOB 170500Z 02007KT 340V080 9999 FEW025 SCT060 BKN/// 20/12 Q1011
RJOB 170400Z 11003KT 060V180 9999 FEW025 BKN035 20/10 Q1011
RJOB 170300Z 24004KT 180V330 9999 FEW020 SCT030 BKN/// 20/11 Q1012
RJOB 170200Z 02004KT 310V070 9999 FEW020 BKN/// 19/12 Q1012
RJOB 170100Z 02006KT 320V050 9999 FEW020 SCT/// 18/12 Q1013
RJOB 170000Z 36004KT 290V030 CAVOK 17/13 Q1013
RJOB 162300Z 34004KT 300V030 9999 PRFG FEW000 16/12 Q1012
RJOB 162200Z 34006KT 9999 PRFG FEW000 13/12 Q1012
RJOB 162115Z 34006KT 9999 PRFG FEW000 SCT110 13/11 Q1011 RMK 1ST000 3AC110 A2988 FG NE-E
RJOB 161200Z 35006KT 290V030 9999 -SHRA FEW020 SCT045 BKN060 15/13 Q1012
RJOB 161100Z 33005KT 9999 -SHRA FEW020 SCT030 BKN040 15/14 Q1012
RJOB 161000Z 35006KT 310V020 9999 -SHRA FEW020 BKN030 BKN080 16/14 Q1012
RJOB 160900Z 33004KT 9999 FEW030 SCT050 BKN120 18/14 Q1011
RJOB 160800Z 17003KT 9999 FEW030 SCT160 BKN/// 18/13 Q1011
RJOB 160700Z 14004KT 080V200 9999 FEW030 SCT160 20/13 Q1011
RJOB 160600Z 16004KT 130V200 9999 FEW025 SCT040 BKN140 20/13 Q1011
RJOB 160500Z 12003KT 080V170 9999 FEW025 SCT040 BKN170 21/13 Q1012
RJOB 160400Z 13005KT 060V180 9999 FEW020 SCT030 BKN/// 20/12 Q1012
RJOB 160300Z VRB02KT 9999 FEW025 SCT035 19/12 Q1013
RJOB 160200Z 02004KT 320V090 9999 FEW025 BKN/// 19/13 Q1014
RJOB 160100Z 12003KT 070V190 9999 FEW025 BKN/// 19/12 Q1015
RJOB 160000Z 08003KT 340V140 9999 FEW020 BKN/// 16/12 Q1016
RJOB 152300Z 36006KT 9999 FEW025 SCT030 BKN180 16/12 Q1015
RJOB 152200Z VRB01KT 9999 FEW020 BKN025 14/11 Q1015
RJOB 152115Z 36004KT 320V030 9999 FEW020 SCT025 BKN/// 14/11 Q1015 RMK 1CU020 4CU025 A3000
RJOB 151200Z 34005KT 300V020 9999 FEW025 16/12 Q1017
RJOB 151100Z 33005KT 310V010 9999 FEW025 SCT045 17/13 Q1017
RJOB 151000Z 34004KT 300V020 9999 FEW025 SCT050 18/13 Q1016
RJOB 150900Z 28001KT 9999 FEW025 SCT/// 18/13 Q1015
RJOB 150800Z 23002KT 9999 FEW030 SCT/// 20/12 Q1015
RJOB 150700Z 16004KT 9999 FEW030 SCT/// 21/12 Q1016
RJOB 150600Z 21005KT 9999 FEW030 SCT/// 22/12 Q1016
RJOB 150500Z VRB03KT 9999 FEW025 SCT040 BKN/// 22/10 Q1016